createdAt,value
2019-06-20T00:00:51.722Z,8.87
2019-06-20T00:03:22.542Z,9.77
2019-06-20T00:05:53.164Z,13.00
2019-06-20T00:08:23.882Z,9.90
2019-06-20T00:10:54.551Z,9.03
2019-06-20T00:13:25.223Z,9.33
2019-06-20T00:15:55.871Z,13.27
2019-06-20T00:18:26.610Z,9.30
2019-06-20T00:20:58.250Z,11.50
2019-06-20T00:23:29.039Z,10.27
2019-06-20T00:25:59.764Z,11.13
2019-06-20T00:28:30.475Z,12.03
2019-06-20T00:31:01.211Z,12.33
2019-06-20T00:33:31.992Z,13.90
2019-06-20T00:36:02.691Z,16.13
2019-06-20T00:38:33.446Z,10.40
2019-06-20T00:41:04.054Z,11.90
2019-06-20T00:43:34.827Z,12.23
2019-06-20T00:46:05.550Z,9.33
2019-06-20T00:48:36.483Z,10.60
2019-06-20T00:51:07.183Z,15.63
2019-06-20T00:53:39.091Z,15.93
2019-06-20T00:56:12.587Z,14.00
2019-06-20T00:58:45.050Z,14.07
2019-06-20T01:01:16.703Z,14.93
2019-06-20T01:03:48.473Z,15.50
2019-06-20T01:06:22.248Z,17.53
2019-06-20T01:08:53.851Z,18.43
2019-06-20T01:11:27.044Z,19.87
2019-06-20T01:13:59.040Z,19.17
2019-06-20T01:16:33.810Z,13.77
2019-06-20T01:19:06.637Z,15.37
2019-06-20T01:21:38.463Z,19.57
2019-06-20T01:24:09.418Z,14.77
2019-06-20T01:26:40.091Z,15.40
2019-06-20T01:29:10.730Z,16.17
2019-06-20T01:31:41.499Z,14.57
2019-06-20T01:34:12.191Z,14.90
2019-06-20T01:36:42.872Z,16.10
2019-06-20T01:39:13.897Z,18.80
2019-06-20T01:41:44.573Z,18.13
2019-06-20T01:44:15.351Z,14.43
2019-06-20T01:46:46.050Z,16.93
2019-06-20T01:49:16.790Z,17.40
2019-06-20T01:51:47.495Z,18.27
2019-06-20T01:54:18.348Z,17.33
2019-06-20T01:57:00.530Z,18.63
2019-06-20T01:59:31.311Z,16.60
2019-06-20T02:02:02.034Z,14.00
2019-06-20T02:04:33.883Z,10.80
2019-06-20T02:07:04.633Z,12.17
2019-06-20T02:09:35.412Z,11.20
2019-06-20T02:12:06.237Z,11.73
2019-06-20T02:14:36.932Z,12.73
2019-06-20T02:17:07.633Z,12.50
2019-06-20T02:19:38.471Z,11.17
2019-06-20T02:22:09.071Z,8.67
2019-06-20T02:24:39.891Z,10.00
2019-06-20T02:27:10.611Z,12.10
2019-06-20T02:29:41.492Z,9.57
2019-06-20T02:32:12.290Z,10.43
2019-06-20T02:34:43.112Z,11.60
2019-06-20T02:37:13.791Z,9.37
2019-06-20T02:39:44.597Z,9.77
2019-06-20T02:42:15.392Z,10.57
2019-06-20T02:44:46.131Z,10.43
2019-06-20T02:47:16.851Z,10.93
2019-06-20T02:49:47.562Z,11.77
2019-06-20T02:52:18.333Z,12.67
2019-06-20T02:54:49.401Z,12.80
2019-06-20T02:57:20.071Z,10.57
2019-06-20T02:59:50.811Z,13.23
2019-06-20T03:02:21.471Z,7.63
2019-06-20T03:04:52.210Z,9.23
2019-06-20T03:07:22.970Z,8.83
2019-06-20T03:09:53.730Z,7.83
2019-06-20T03:12:24.497Z,8.17
2019-06-20T03:14:55.214Z,10.33
2019-06-20T03:17:25.971Z,8.90
2019-06-20T03:19:56.711Z,8.30
2019-06-20T03:22:27.473Z,8.13
2019-06-20T03:24:58.230Z,7.30
2019-06-20T03:27:28.971Z,7.10
2019-06-20T03:29:59.811Z,9.00
2019-06-20T03:32:30.851Z,8.03
2019-06-20T03:35:01.550Z,12.27
2019-06-20T03:37:32.230Z,10.93
2019-06-20T03:40:02.978Z,9.50
2019-06-20T03:42:33.630Z,10.70
2019-06-20T03:45:04.471Z,8.07
2019-06-20T03:47:35.130Z,9.23
2019-06-20T03:50:05.904Z,10.23
2019-06-20T03:52:36.702Z,15.33
2019-06-20T03:55:07.751Z,8.80
2019-06-20T03:57:38.453Z,10.60
2019-06-20T04:00:09.606Z,8.13
2019-06-20T04:02:40.311Z,8.53
2019-06-20T04:05:11.050Z,10.87
2019-06-20T04:07:41.787Z,10.47
2019-06-20T04:10:12.624Z,11.07
2019-06-20T04:15:19.011Z,13.67
2019-06-20T04:17:44.015Z,11.97
2019-06-20T04:20:15.425Z,10.17
2019-06-20T04:22:46.102Z,10.23
2019-06-20T04:25:16.871Z,11.63
2019-06-20T04:27:47.566Z,10.17
2019-06-20T04:30:18.293Z,13.37
2019-06-20T04:32:49.033Z,12.23
2019-06-20T04:35:19.714Z,13.77
2019-06-20T04:37:50.410Z,10.60
2019-06-20T04:40:22.511Z,10.80
2019-06-20T04:42:53.750Z,11.03
2019-06-20T04:45:42.582Z,9.10
2019-06-20T04:48:13.482Z,7.77
2019-06-20T04:50:44.372Z,6.87
2019-06-20T04:53:14.994Z,7.20
2019-06-20T04:55:45.762Z,8.80
2019-06-20T04:58:16.675Z,7.60
2019-06-20T05:00:47.363Z,8.70
2019-06-20T05:03:18.282Z,7.33
2019-06-20T05:05:48.942Z,6.63
2019-06-20T05:08:19.746Z,9.93
2019-06-20T05:10:50.364Z,9.03
2019-06-20T05:13:20.962Z,6.47
2019-06-20T05:15:53.542Z,7.60
2019-06-20T05:18:24.357Z,8.10
2019-06-20T05:20:55.082Z,6.70
2019-06-20T05:23:25.682Z,7.13
2019-06-20T05:25:56.431Z,9.30
2019-06-20T05:28:27.067Z,6.50
2019-06-20T05:30:57.802Z,8.20
2019-06-20T05:33:28.444Z,8.27
2019-06-20T05:35:59.162Z,6.70
2019-06-20T05:38:29.884Z,7.13
2019-06-20T05:41:01.092Z,9.30
2019-06-20T05:43:31.862Z,6.40
2019-06-20T05:46:09.750Z,6.43
2019-06-20T05:48:34.864Z,5.87
2019-06-20T05:51:06.318Z,5.90
2019-06-20T05:53:37.002Z,5.60
2019-06-20T05:56:08.706Z,5.53
2019-06-20T05:58:39.525Z,6.93
2019-06-20T06:01:11.590Z,5.60
2019-06-20T06:03:42.405Z,5.90
2019-06-20T06:06:13.181Z,5.10
2019-06-20T06:08:43.934Z,5.17
2019-06-20T06:11:14.564Z,6.40
2019-06-20T06:14:04.302Z,6.07
2019-06-20T06:16:34.963Z,5.87
2019-06-20T06:19:05.714Z,5.43
2019-06-20T06:21:36.502Z,6.73
2019-06-20T06:24:07.403Z,6.73
2019-06-20T06:26:38.164Z,4.40
2019-06-20T06:29:08.842Z,4.30
2019-06-20T06:31:39.583Z,4.40
2019-06-20T06:34:10.362Z,5.10
2019-06-20T06:36:41.063Z,4.53
2019-06-20T06:39:11.742Z,4.40
2019-06-20T06:41:42.463Z,5.07
2019-06-20T06:44:13.122Z,4.83
2019-06-20T06:46:52.785Z,5.47
2019-06-20T06:49:16.166Z,4.50
2019-06-20T06:51:46.962Z,4.57
2019-06-20T06:54:17.603Z,4.83
2019-06-20T06:56:48.302Z,4.40
2019-06-20T06:59:18.964Z,7.37
2019-06-20T07:01:49.678Z,4.90
2019-06-20T07:04:20.436Z,4.60
2019-06-20T07:06:51.143Z,4.90
2019-06-20T07:09:21.783Z,5.97
2019-06-20T07:11:52.443Z,5.07
2019-06-20T07:14:23.102Z,5.97
2019-06-20T07:17:00.193Z,5.10
2019-06-20T07:19:26.183Z,5.80
2019-06-20T07:21:56.883Z,5.80
2019-06-20T07:24:27.683Z,4.80
2019-06-20T07:26:58.482Z,4.87
2019-06-20T07:29:29.147Z,5.83
2019-06-20T07:31:59.903Z,5.30
2019-06-20T07:34:30.523Z,5.03
2019-06-20T07:37:01.202Z,4.07
2019-06-20T07:39:32.003Z,6.40
2019-06-20T07:42:02.662Z,4.60
2019-06-20T07:44:33.270Z,6.43
2019-06-20T07:47:16.681Z,5.03
2019-06-20T07:49:37.163Z,4.30
2019-06-20T07:52:07.864Z,5.37
2019-06-20T07:54:38.590Z,4.30
2019-06-20T07:57:09.363Z,4.23
2019-06-20T07:59:41.383Z,4.27
2019-06-20T08:02:13.582Z,5.07
2019-06-20T08:04:44.204Z,3.97
2019-06-20T08:07:16.546Z,4.50
2019-06-20T08:09:47.229Z,4.30
2019-06-20T08:12:19.663Z,3.60
2019-06-20T08:14:50.303Z,3.87
2019-06-20T08:17:34.869Z,4.13
2019-06-20T08:19:53.343Z,5.20
2019-06-20T08:22:24.084Z,3.83
2019-06-20T08:24:54.953Z,3.50
2019-06-20T08:27:44.688Z,3.20
2019-06-20T08:30:15.604Z,4.10
2019-06-20T08:32:46.402Z,3.30
2019-06-20T08:35:17.223Z,4.33
2019-06-20T08:37:47.874Z,3.27
2019-06-20T08:40:19.042Z,3.17
2019-06-20T08:42:49.643Z,4.53
2019-06-20T08:45:22.142Z,3.50
2019-06-20T08:47:52.762Z,4.30
2019-06-20T08:50:24.902Z,3.73
2019-06-20T08:52:56.634Z,2.90
2019-06-20T08:55:28.023Z,3.03
2019-06-20T08:57:59.686Z,4.23
2019-06-20T09:00:32.003Z,3.10
2019-06-20T09:05:33.482Z,3.47
2019-06-20T09:10:42.012Z,4.63
2019-06-20T09:13:14.983Z,2.80
2019-06-20T09:15:45.642Z,6.43
2019-06-20T09:18:16.402Z,3.03
2019-06-20T09:20:47.102Z,3.33
2019-06-20T09:23:17.645Z,2.40
2019-06-20T09:25:48.347Z,2.97
2019-06-20T09:28:19.122Z,2.40
2019-06-20T09:30:50.657Z,4.13
2019-06-20T09:33:21.963Z,2.53
2019-06-20T09:35:53.836Z,3.53
2019-06-20T09:38:25.006Z,2.77
2019-06-20T09:40:56.825Z,2.73
2019-06-20T09:43:28.115Z,3.60
2019-06-20T09:45:58.902Z,2.60
2019-06-20T09:48:29.623Z,4.77
2019-06-20T09:51:00.226Z,3.13
2019-06-20T09:53:30.924Z,2.90
2019-06-20T09:56:01.563Z,3.57
2019-06-20T09:58:32.266Z,3.17
2019-06-20T10:01:03.013Z,3.20
2019-06-20T10:03:33.706Z,3.03
2019-06-20T10:06:13.272Z,3.37
2019-06-20T10:08:36.825Z,3.10
2019-06-20T10:11:07.653Z,2.83
2019-06-20T10:13:38.323Z,3.13
2019-06-20T10:16:09.044Z,3.87
2019-06-20T10:18:39.824Z,2.10
2019-06-20T10:21:10.802Z,3.03
2019-06-20T10:23:41.504Z,4.27
2019-06-20T10:26:12.207Z,2.97
2019-06-20T10:28:42.943Z,2.80
2019-06-20T10:31:13.643Z,2.00
2019-06-20T10:33:45.756Z,2.17
2019-06-20T10:36:16.768Z,2.33
2019-06-20T10:38:48.039Z,2.47
2019-06-20T10:41:18.743Z,2.87
2019-06-20T10:43:49.597Z,2.30
2019-06-20T10:46:20.342Z,4.33
2019-06-20T10:48:52.738Z,2.00
2019-06-20T10:51:38.728Z,2.50
2019-06-20T10:54:09.574Z,2.23
2019-06-20T10:56:41.923Z,4.03
2019-06-20T10:59:13.105Z,4.70
2019-06-20T11:01:44.375Z,4.10
2019-06-20T11:04:15.155Z,3.63
2019-06-20T11:06:45.962Z,3.73
2019-06-20T11:09:16.689Z,3.23
2019-06-20T11:11:47.422Z,2.63
2019-06-20T11:14:18.255Z,3.50
2019-06-20T11:16:49.312Z,3.10
2019-06-20T11:19:20.223Z,2.53
2019-06-20T11:22:09.964Z,2.43
2019-06-20T11:24:41.203Z,6.77
2019-06-20T11:27:12.004Z,14.00
2019-06-20T11:29:44.051Z,3.90
2019-06-20T11:32:14.907Z,3.10
2019-06-20T11:34:45.563Z,4.27
2019-06-20T11:37:16.308Z,6.17
2019-06-20T11:39:47.466Z,3.70
2019-06-20T11:42:18.238Z,3.00
2019-06-20T11:44:48.802Z,2.97
2019-06-20T11:47:20.628Z,3.20
2019-06-20T11:49:51.502Z,3.83
2019-06-20T11:52:22.116Z,4.57
2019-06-20T11:54:52.763Z,2.30
2019-06-20T11:57:24.322Z,2.90
2019-06-20T11:59:54.963Z,2.30
2019-06-20T12:02:25.743Z,5.27
2019-06-20T12:04:56.583Z,2.47
2019-06-20T12:07:27.365Z,4.30
2019-06-20T12:09:57.982Z,2.87
2019-06-20T12:12:28.887Z,4.57
2019-06-20T12:14:59.643Z,2.83
2019-06-20T12:17:30.842Z,2.97
2019-06-20T12:20:01.728Z,3.57
2019-06-20T12:22:32.478Z,4.03
2019-06-20T12:25:03.255Z,6.27
2019-06-20T12:27:33.982Z,5.00
2019-06-20T12:30:06.142Z,4.90
2019-06-20T12:32:36.903Z,3.20
2019-06-20T12:35:07.785Z,6.17
2019-06-20T12:37:40.591Z,6.07
2019-06-20T12:40:11.883Z,5.40
2019-06-20T12:42:43.549Z,5.83
2019-06-20T12:45:17.602Z,6.20
2019-06-20T12:47:48.534Z,3.47
2019-06-20T12:50:20.642Z,19.27
2019-06-20T12:52:51.462Z,4.77
2019-06-20T12:55:22.723Z,6.83
2019-06-20T12:57:53.983Z,6.10
2019-06-20T13:00:25.482Z,7.60
2019-06-20T13:02:56.177Z,41.07
2019-06-20T13:05:27.443Z,7.13
2019-06-20T13:07:58.382Z,5.93
2019-06-20T13:10:29.224Z,5.57
2019-06-20T13:12:59.996Z,3.40
2019-06-20T13:15:30.771Z,7.00
2019-06-20T13:18:01.611Z,6.03
2019-06-20T13:20:32.400Z,3.17
2019-06-20T13:23:03.181Z,2.77
2019-06-20T13:25:33.838Z,3.83
2019-06-20T13:28:04.642Z,2.33
2019-06-20T13:30:35.662Z,3.67
2019-06-20T13:33:09.025Z,3.47
2019-06-20T13:35:41.619Z,4.13
2019-06-20T13:38:12.362Z,3.67
2019-06-20T13:40:43.303Z,2.77
2019-06-20T13:43:14.003Z,4.10
2019-06-20T13:45:47.230Z,3.40
2019-06-20T13:48:18.022Z,2.60
2019-06-20T13:50:49.666Z,5.03
2019-06-20T13:53:20.643Z,2.90
2019-06-20T13:55:51.443Z,3.30
2019-06-20T13:58:24.343Z,3.70
2019-06-20T14:00:55.042Z,2.70
2019-06-20T14:03:25.785Z,3.87
2019-06-20T14:05:56.526Z,2.83
2019-06-20T14:08:27.226Z,3.57
2019-06-20T14:10:58.003Z,3.03
2019-06-20T14:13:28.762Z,4.13
2019-06-20T14:15:59.543Z,3.13
2019-06-20T14:18:30.367Z,2.87
2019-06-20T14:21:01.027Z,4.00
2019-06-20T14:23:31.864Z,1.80
2019-06-20T14:26:02.663Z,2.05
2019-06-20T14:28:33.655Z,2.43
2019-06-20T14:31:05.964Z,2.05
2019-06-20T14:33:36.703Z,4.45
2019-06-20T14:36:07.223Z,2.77
2019-06-20T14:38:37.932Z,2.62
2019-06-20T14:41:08.683Z,2.10
2019-06-20T14:43:39.445Z,3.52
2019-06-20T14:46:10.115Z,2.72
2019-06-20T14:48:40.786Z,2.62
2019-06-20T14:51:11.542Z,1.95
2019-06-20T14:53:47.149Z,2.33
2019-06-20T14:56:19.282Z,1.90
2019-06-20T14:58:51.534Z,2.00
2019-06-20T15:01:22.944Z,2.00
2019-06-20T15:03:53.897Z,2.27
2019-06-20T15:06:24.606Z,1.65
2019-06-20T15:09:03.258Z,1.62
2019-06-20T15:11:27.924Z,1.55
2019-06-20T15:13:58.542Z,2.52
2019-06-20T15:16:29.234Z,3.23
2019-06-20T15:19:00.344Z,1.50
2019-06-20T15:21:31.214Z,1.65
2019-06-20T15:24:01.884Z,1.60
2019-06-20T15:26:32.682Z,2.60
2019-06-20T15:29:06.148Z,1.87
2019-06-20T15:31:35.802Z,1.72
2019-06-20T15:34:06.702Z,1.85
2019-06-20T15:36:37.523Z,1.62
2019-06-20T15:39:08.822Z,2.75
2019-06-20T15:41:39.482Z,1.72
2019-06-20T15:44:11.145Z,1.32
2019-06-20T15:46:42.002Z,1.20
2019-06-20T15:49:16.289Z,1.20
2019-06-20T15:51:46.146Z,2.90
2019-06-20T15:54:17.263Z,1.50
2019-06-20T15:56:48.003Z,2.15
2019-06-20T15:59:19.362Z,2.05
2019-06-20T16:01:49.980Z,1.45
2019-06-20T16:04:20.635Z,1.35
2019-06-20T16:06:51.170Z,1.87
2019-06-20T16:09:21.728Z,1.40
2019-06-20T16:11:52.258Z,3.00
2019-06-20T16:14:22.858Z,1.47
2019-06-20T16:16:53.428Z,1.40
2019-06-20T16:19:23.980Z,2.95
2019-06-20T16:21:54.533Z,1.55
2019-06-20T16:24:25.612Z,2.55
2019-06-20T16:26:56.639Z,1.40
2019-06-20T16:29:27.495Z,2.02
2019-06-20T16:31:58.153Z,2.60
2019-06-20T16:34:28.729Z,3.05
2019-06-20T16:37:09.684Z,1.40
2019-06-20T16:39:31.688Z,2.33
2019-06-20T16:42:02.324Z,4.00
2019-06-20T16:44:39.658Z,3.27
2019-06-20T16:47:11.446Z,1.60
2019-06-20T16:49:43.079Z,1.60
2019-06-20T16:52:14.296Z,2.27
2019-06-20T16:54:44.946Z,1.92
2019-06-20T16:57:15.444Z,2.00
2019-06-20T16:59:46.312Z,2.83
2019-06-20T17:02:16.879Z,2.72
2019-06-20T17:04:48.844Z,3.58
2019-06-20T17:07:19.631Z,1.90
2019-06-20T17:09:50.244Z,2.15
2019-06-20T17:12:21.211Z,2.22
2019-06-20T17:14:51.989Z,2.43
2019-06-20T17:17:22.563Z,4.10
2019-06-20T17:19:53.309Z,1.97
2019-06-20T17:22:23.998Z,3.33
2019-06-20T17:24:54.845Z,2.33
2019-06-20T17:27:25.461Z,4.30
2019-06-20T17:29:56.599Z,2.30
2019-06-20T17:32:27.218Z,3.30
2019-06-20T17:34:57.878Z,4.00
2019-06-20T17:37:28.555Z,2.30
2019-06-20T17:39:59.160Z,3.87
2019-06-20T17:42:30.513Z,2.30
2019-06-20T17:45:01.205Z,2.47
2019-06-20T17:47:32.006Z,2.27
2019-06-20T17:50:02.682Z,3.77
2019-06-20T17:52:33.300Z,3.03
2019-06-20T17:55:04.089Z,2.10
2019-06-20T17:57:34.653Z,2.70
2019-06-20T18:00:07.259Z,2.27
2019-06-20T18:02:37.820Z,4.90
2019-06-20T18:05:09.085Z,2.17
2019-06-20T18:07:39.871Z,2.30
2019-06-20T18:10:11.053Z,3.53
2019-06-20T18:12:41.737Z,2.20
2019-06-20T18:15:13.523Z,2.10
2019-06-20T18:17:44.111Z,2.20
2019-06-20T18:20:15.783Z,1.80
2019-06-20T18:22:46.494Z,3.00
2019-06-20T18:25:17.403Z,2.70
2019-06-20T18:27:48.183Z,2.13
2019-06-20T18:30:19.395Z,2.10
2019-06-20T18:32:50.021Z,2.10
2019-06-20T18:35:20.804Z,3.57
2019-06-20T18:37:51.414Z,1.87
2019-06-20T18:40:22.175Z,1.80
2019-06-20T18:42:52.820Z,2.17
2019-06-20T18:45:23.633Z,2.60
2019-06-20T18:47:55.519Z,3.00
2019-06-20T18:50:26.302Z,5.57
2019-06-20T18:52:57.499Z,2.57
2019-06-20T18:55:28.354Z,3.57
2019-06-20T18:57:59.000Z,2.93
2019-06-20T19:00:34.749Z,2.20
2019-06-20T19:03:02.729Z,4.23
2019-06-20T19:05:33.363Z,2.80
2019-06-20T19:08:03.889Z,2.47
2019-06-20T19:10:35.453Z,2.90
2019-06-20T19:13:06.650Z,2.60
2019-06-20T19:15:37.286Z,1.70
2019-06-20T19:18:08.057Z,6.33
2019-06-20T19:20:39.759Z,2.40
2019-06-20T19:23:10.514Z,2.50
2019-06-20T19:25:41.754Z,1.60
2019-06-20T19:28:12.466Z,1.73
2019-06-20T19:30:47.538Z,1.93
2019-06-20T19:33:18.343Z,1.90
2019-06-20T19:35:49.080Z,1.73
2019-06-20T19:38:19.735Z,3.77
2019-06-20T19:40:51.713Z,3.17
2019-06-20T19:43:22.341Z,5.20
2019-06-20T19:45:52.982Z,2.03
2019-06-20T19:48:23.644Z,2.03
2019-06-20T19:50:54.219Z,3.37
2019-06-20T19:53:25.051Z,2.67
2019-06-20T19:55:56.390Z,5.33
2019-06-20T19:58:30.956Z,4.47
2019-06-20T20:01:01.579Z,4.10
2019-06-20T20:03:32.352Z,3.00
2019-06-20T20:06:03.996Z,3.93
2019-06-20T20:08:34.600Z,3.77
2019-06-20T20:11:05.351Z,3.90
2019-06-20T20:13:35.950Z,3.67
2019-06-20T20:16:06.719Z,4.43
2019-06-20T20:18:37.298Z,5.67
2019-06-20T20:21:07.959Z,3.93
2019-06-20T20:23:38.484Z,4.90
2019-06-20T20:26:09.050Z,6.17
2019-06-20T20:28:39.613Z,3.40
2019-06-20T20:31:10.113Z,2.70
2019-06-20T20:33:40.681Z,2.37
2019-06-20T20:36:24.003Z,4.60
2019-06-20T20:38:43.431Z,4.80
2019-06-20T20:41:14.004Z,3.83
2019-06-20T20:43:44.638Z,3.03
2019-06-20T20:46:15.313Z,3.57
2019-06-20T20:48:45.939Z,2.90
2019-06-20T20:51:16.620Z,4.47
2019-06-20T20:53:47.299Z,4.80
2019-06-20T20:56:17.943Z,3.30
2019-06-20T20:58:48.610Z,4.40
2019-06-20T21:01:30.640Z,3.77
2019-06-20T21:04:01.288Z,3.13
2019-06-20T21:06:32.923Z,3.13
2019-06-20T21:09:03.572Z,3.10
2019-06-20T21:11:35.666Z,3.53
2019-06-20T21:14:06.291Z,11.17
2019-06-20T21:16:36.909Z,3.40
2019-06-20T21:19:07.648Z,3.43
2019-06-20T21:21:38.314Z,4.23
2019-06-20T21:24:08.983Z,4.70
2019-06-20T21:26:49.506Z,3.87
2019-06-20T21:29:12.008Z,4.23
2019-06-20T21:31:42.684Z,4.53
2019-06-20T21:34:13.339Z,2.63
2019-06-20T21:36:43.964Z,4.77
2019-06-20T21:39:14.519Z,4.33
2019-06-20T21:41:45.185Z,3.00
2019-06-20T21:44:15.812Z,3.47
2019-06-20T21:46:47.538Z,4.60
2019-06-20T21:49:18.148Z,5.00
2019-06-20T21:51:48.655Z,7.17
2019-06-20T21:54:19.253Z,7.43
2019-06-20T21:56:49.944Z,10.43
2019-06-20T21:59:20.443Z,5.40
2019-06-20T22:01:51.149Z,11.50
2019-06-20T22:04:21.734Z,8.23
2019-06-20T22:06:52.328Z,4.33
2019-06-20T22:09:22.883Z,6.77
2019-06-20T22:11:53.698Z,4.67
2019-06-20T22:14:24.315Z,7.23
2019-06-20T22:16:55.003Z,6.40
2019-06-20T22:19:25.628Z,5.43
2019-06-20T22:21:56.298Z,7.27
2019-06-20T22:24:26.965Z,4.37
2019-06-20T22:26:57.615Z,3.90
2019-06-20T22:29:28.233Z,4.13
2019-06-20T22:31:58.798Z,4.63
2019-06-20T22:34:29.364Z,6.80
2019-06-20T22:36:59.848Z,3.87
2019-06-20T22:39:30.330Z,3.07
2019-06-20T22:42:00.893Z,3.30
2019-06-20T22:44:31.478Z,3.03
2019-06-20T22:47:02.065Z,4.17
2019-06-20T22:49:32.670Z,7.53
2019-06-20T22:52:03.280Z,5.97
2019-06-20T22:54:33.919Z,5.37
2019-06-20T22:57:04.505Z,4.27
2019-06-20T22:59:35.160Z,4.80
2019-06-20T23:02:05.743Z,5.73
2019-06-20T23:04:36.388Z,4.37
2019-06-20T23:07:07.046Z,6.47
2019-06-20T23:09:37.820Z,8.57
2019-06-20T23:12:08.439Z,5.27
2019-06-20T23:14:39.028Z,8.10
2019-06-20T23:17:09.583Z,7.73
2019-06-20T23:19:39.980Z,6.87
2019-06-20T23:22:11.213Z,7.78
2019-06-20T23:24:41.588Z,7.00
2019-06-20T23:27:14.087Z,5.27
2019-06-20T23:29:43.892Z,5.37
2019-06-20T23:32:14.246Z,6.50
2019-06-20T23:34:44.552Z,8.57
2019-06-20T23:37:14.941Z,4.37
2019-06-20T23:39:45.254Z,4.30
2019-06-20T23:42:15.611Z,5.37
2019-06-20T23:44:45.903Z,6.60
2019-06-20T23:47:16.269Z,7.07
2019-06-20T23:49:46.607Z,6.57
2019-06-20T23:52:20.127Z,8.03
2019-06-20T23:54:50.444Z,6.77
2019-06-20T23:57:20.854Z,9.20
2019-06-20T23:59:51.147Z,8.60
